Time;durP1;ratioP1;P1;durP2;ratioP2;P2;SDS_P1;SDS_P2;PMS_P1;PMS_P2;Temp;Humidity;BMP_temperature;BMP_pressure;BME280_temperature;BME280_humidity;BME280_pressure;Samples;Min_cycle;Max_cycle;Signal;HPM_P1;HPM_P2
2021/09/26 00:02:26;;;;;;;20.25;10.20;;;;;;;13.15;94.51;91014.78;5018645;28;20032;-90
2021/09/26 00:04:51;;;;;;;21.05;9.80;;;;;;;13.02;95.41;91016.00;5018502;28;20025;-90
2021/09/26 00:07:16;;;;;;;19.42;9.95;;;;;;;13.04;95.90;91014.56;5035237;28;20531;-90
2021/09/26 00:09:42;;;;;;;20.13;10.77;;;;;;;12.98;96.88;91013.28;5035411;28;20308;-90
2021/09/26 00:12:07;;;;;;;21.17;9.95;;;;;;;13.11;96.46;91006.13;5034876;28;20033;-89
2021/09/26 00:14:33;;;;;;;19.25;10.25;;;;;;;13.05;96.37;91004.84;5034777;28;20051;-89
2021/09/26 00:16:58;;;;;;;17.20;9.70;;;;;;;13.00;96.79;91010.31;5034819;28;20028;-89
2021/09/26 00:19:25;;;;;;;15.52;8.93;;;;;;;12.98;96.77;91015.91;5031719;28;20021;-89
2021/09/26 00:21:51;;;;;;;11.93;8.10;;;;;;;13.03;95.68;91018.25;5015162;28;20168;-89
2021/09/26 00:24:17;;;;;;;14.57;8.98;;;;;;;13.01;94.77;91017.09;5014612;28;20037;-90
2021/09/26 00:26:43;;;;;;;18.52;8.23;;;;;;;12.91;94.92;91020.97;5031504;28;20048;-90
2021/09/26 00:29:08;;;;;;;26.13;8.93;;;;;;;12.95;95.46;91015.84;5014660;28;20022;-89
2021/09/26 00:31:33;;;;;;;15.85;9.52;;;;;;;12.91;95.50;91016.50;5031528;28;20021;-90
2021/09/26 00:33:59;;;;;;;12.57;8.30;;;;;;;12.89;94.91;91018.69;5031071;28;20075;-90
2021/09/26 00:36:24;;;;;;;14.95;8.15;;;;;;;12.85;95.04;91020.47;5031180;28;20041;-89
2021/09/26 00:38:50;;;;;;;13.65;9.02;;;;;;;12.88;95.42;91019.78;5031045;28;20025;-89
2021/09/26 00:41:15;;;;;;;11.43;7.70;;;;;;;12.95;94.85;91015.84;5031066;28;20487;-90
2021/09/26 00:43:41;;;;;;;15.00;8.45;;;;;;;12.97;94.99;91016.22;5014343;28;20022;-89
2021/09/26 00:46:06;;;;;;;12.68;7.93;;;;;;;12.94;95.47;91014.31;4998515;28;20025;-92
2021/09/26 00:48:32;;;;;;;14.38;8.93;;;;;;;13.00;94.86;91007.72;5014835;28;20017;-89
2021/09/26 00:50:58;;;;;;;14.75;8.60;;;;;;;12.99;94.82;91006.19;4998160;28;20033;-90
2021/09/26 00:53:24;;;;;;;30.27;7.85;;;;;;;12.99;93.48;91008.81;5030865;28;20058;-89
2021/09/26 00:55:54;;;;;;;14.30;8.73;;;;;;;12.83;94.48;91008.84;5038207;28;20032;-90
2021/09/26 00:58:20;;;;;;;15.55;8.15;;;;;;;12.82;95.00;91013.28;5034223;28;20490;-90
2021/09/26 01:00:47;;;;;;;16.50;8.23;;;;;;;12.83;94.52;91009.59;5034198;28;20055;-89
2021/09/26 01:03:13;;;;;;;14.90;9.10;;;;;;;12.91;95.51;91011.28;5034102;28;20037;-90
2021/09/26 01:05:38;;;;;;;14.52;8.68;;;;;;;12.82;95.12;91018.53;5033786;28;20029;-90
2021/09/26 01:08:13;;;;;;;16.80;9.23;;;;;;;12.78;95.54;91012.47;5017506;28;20465;-89
2021/09/26 01:10:46;;;;;;;14.70;8.40;;;;;;;12.80;95.41;91019.97;5033970;28;20029;-90
2021/09/26 01:13:15;;;;;;;23.07;8.27;;;;;;;12.81;94.77;91016.25;5033990;28;20020;-91
2021/09/26 01:16:01;;;;;;;74.07;9.63;;;;;;;12.86;95.77;91008.16;5051266;28;20085;-89
2021/09/26 01:18:47;;;;;;;31.20;9.02;;;;;;;12.76;95.53;90998.97;5050348;28;20048;-89
2021/09/26 01:21:29;;;;;;;14.50;8.68;;;;;;;12.63;94.86;90997.53;5014125;28;20025;-90
2021/09/26 01:24:16;;;;;;;11.23;7.15;;;;;;;12.55;94.46;90993.25;5030053;28;20025;-89
2021/09/26 01:27:06;;;;;;;10.80;7.15;;;;;;;12.48;94.39;90999.06;5013802;28;20055;-89
2021/09/26 01:29:41;;;;;;;11.70;6.68;;;;;;;12.44;93.92;90987.78;5014045;28;20101;-89
2021/09/26 01:32:06;;;;;;;9.93;7.13;;;;;;;12.34;93.85;90983.78;5031384;28;20064;-92
2021/09/26 01:34:38;;;;;;;18.13;10.18;;;;;;;12.53;93.33;90993.56;5013418;28;20056;-89
2021/09/26 01:37:26;;;;;;;20.38;10.90;;;;;;;12.37;93.51;90984.97;5013886;28;20036;-89
2021/09/26 01:40:04;;;;;;;24.00;10.85;;;;;;;12.38;93.27;90982.03;5013650;28;20017;-89
2021/09/26 01:42:33;;;;;;;21.52;10.70;;;;;;;12.33;93.14;90984.13;5029877;28;20482;-89
2021/09/26 01:45:07;;;;;;;17.15;10.13;;;;;;;12.22;92.98;90986.47;5013357;28;20487;-90
2021/09/26 01:47:57;;;;;;;51.63;8.55;;;;;;;12.14;92.99;90985.53;5030268;28;20486;-90
2021/09/26 01:50:23;;;;;;;14.52;7.95;;;;;;;12.06;93.22;90993.53;4997381;28;20033;-90
2021/09/26 01:52:48;;;;;;;17.95;10.05;;;;;;;11.96;93.42;90987.69;5013607;28;20036;-90
2021/09/26 01:55:14;;;;;;;22.65;11.85;;;;;;;12.15;92.80;90991.50;4996849;28;20040;-89
2021/09/26 01:57:40;;;;;;;24.48;14.15;;;;;;;12.01;93.16;90978.84;5013660;28;20030;-89
2021/09/26 02:00:06;;;;;;;15.60;9.35;;;;;;;11.91;92.73;90987.19;5013673;28;20155;-90
2021/09/26 02:02:31;;;;;;;18.50;10.88;;;;;;;11.90;92.99;90978.56;5013184;28;20503;-90
2021/09/26 02:05:00;;;;;;;22.10;12.30;;;;;;;11.96;93.37;90979.09;5013188;28;20026;-89
2021/09/26 02:07:37;;;;;;;25.83;12.20;;;;;;;12.03;92.95;90975.91;5013455;28;20025;-89
2021/09/26 02:10:02;;;;;;;24.10;11.60;;;;;;;11.87;93.08;90968.03;5013705;28;20053;-89
2021/09/26 02:12:28;;;;;;;18.73;9.93;;;;;;;11.78;93.00;90975.25;4995956;28;20483;-89
2021/09/26 02:14:54;;;;;;;25.73;12.40;;;;;;;12.15;93.75;90965.38;4995621;28;20030;-89
2021/09/26 02:17:20;;;;;;;20.33;11.75;;;;;;;12.15;95.41;90965.38;4996932;28;20029;-89
2021/09/26 02:19:45;;;;;;;19.90;11.15;;;;;;;11.93;95.95;90954.41;5036425;28;20025;-89
2021/09/26 02:22:11;;;;;;;27.17;10.57;;;;;;;11.75;95.68;90952.41;5013324;28;20033;-90
2021/09/26 02:24:37;;;;;;;20.90;9.90;;;;;;;11.67;96.83;90960.06;4996501;28;20029;-92
2021/09/26 02:27:03;;;;;;;22.35;11.07;;;;;;;11.70;97.52;90956.78;5013474;28;20104;-89
2021/09/26 02:29:28;;;;;;;16.88;10.20;;;;;;;11.77;97.51;90955.47;5012994;28;20164;-89
2021/09/26 02:31:54;;;;;;;21.13;10.15;;;;;;;11.79;96.94;90958.47;5013206;28;20083;-89
2021/09/26 02:34:19;;;;;;;21.05;10.05;;;;;;;11.69;97.73;90950.03;4996348;28;20025;-89
2021/09/26 02:36:45;;;;;;;18.98;10.70;;;;;;;11.62;98.43;90941.25;4996610;28;20018;-89
2021/09/26 02:39:14;;;;;;;21.45;10.05;;;;;;;11.67;98.77;90930.59;4996721;28;20408;-89
2021/09/26 02:42:01;;;;;;;15.43;9.73;;;;;;;11.68;98.22;90938.06;5029715;28;20017;-89
2021/09/26 02:44:48;;;;;;;18.20;8.85;;;;;;;11.64;97.99;90931.25;5029275;28;20033;-89
2021/09/26 02:47:21;;;;;;;160.93;7.82;;;;;;;11.56;94.30;90940.00;5012711;28;20029;-90
2021/09/26 02:49:47;;;;;;;19.03;6.43;;;;;;;11.59;93.34;90936.69;4996617;28;20021;-89
2021/09/26 02:52:13;;;;;;;7.85;5.68;;;;;;;11.44;93.22;90933.69;5014215;28;20044;-89
2021/09/26 02:54:40;;;;;;;10.43;6.70;;;;;;;11.34;94.69;90936.81;5032666;28;20033;-89
2021/09/26 02:57:06;;;;;;;14.63;8.52;;;;;;;11.41;95.78;90923.97;5016729;28;20040;-90
2021/09/26 02:59:32;;;;;;;13.85;8.70;;;;;;;11.35;96.29;90927.88;5016696;28;20030;-90
2021/09/26 03:01:57;;;;;;;18.42;7.80;;;;;;;11.32;95.27;90935.63;5016647;28;20025;-89
2021/09/26 03:04:23;;;;;;;18.42;5.78;;;;;;;11.21;94.76;90938.69;5076875;23;20046;-88
2021/09/26 03:06:48;;;;;;;52.53;7.10;;;;;;;11.34;94.73;90934.19;5000506;28;20483;-89
2021/09/26 03:09:13;;;;;;;10.50;6.63;;;;;;;11.22;95.15;90936.84;5000662;28;20021;-89
2021/09/26 03:11:39;;;;;;;13.02;5.90;;;;;;;11.22;94.67;90942.81;5000758;28;20029;-88
2021/09/26 03:14:04;;;;;;;10.65;6.80;;;;;;;11.29;94.12;90926.59;4984071;28;20021;-88
2021/09/26 03:16:30;;;;;;;15.55;6.82;;;;;;;11.29;94.33;90944.09;5016918;28;20033;-89
2021/09/26 03:18:55;;;;;;;12.05;7.70;;;;;;;11.23;94.44;90940.94;5013246;28;20135;-88
2021/09/26 03:21:21;;;;;;;10.82;7.32;;;;;;;11.20;94.70;90949.44;4964839;28;20080;-88
2021/09/26 03:23:46;;;;;;;25.88;6.45;;;;;;;11.13;94.56;90936.19;4996830;28;20032;-88
2021/09/26 03:26:12;;;;;;;17.15;7.90;;;;;;;11.22;95.14;90945.41;4980833;28;20026;-88
2021/09/26 03:28:37;;;;;;;13.90;7.72;;;;;;;11.19;94.54;90937.50;4980736;28;20452;-87
2021/09/26 03:31:03;;;;;;;14.70;7.55;;;;;;;11.22;94.42;90945.41;4980957;28;20099;-88
2021/09/26 03:33:28;;;;;;;59.30;7.55;;;;;;;11.15;95.19;90947.06;4980348;28;20032;-89
2021/09/26 03:35:53;;;;;;;32.47;7.43;;;;;;;11.08;94.92;90942.41;4996905;28;20018;-88
2021/09/26 03:38:19;;;;;;;67.45;8.18;;;;;;;11.00;96.08;90940.69;4996804;28;20030;-88
2021/09/26 03:40:44;;;;;;;36.60;7.97;;;;;;;11.12;95.55;90934.69;4980745;28;20566;-88
2021/09/26 03:43:10;;;;;;;11.10;7.78;;;;;;;10.96;96.40;90935.38;4980643;28;20120;-88
2021/09/26 03:45:35;;;;;;;24.13;8.55;;;;;;;10.96;97.64;90929.41;5012857;28;20387;-89
2021/09/26 03:48:01;;;;;;;19.08;9.25;;;;;;;10.96;97.73;90926.78;4980599;28;20089;-88
2021/09/26 03:50:26;;;;;;;66.60;10.25;;;;;;;11.01;98.37;90929.16;4980429;28;20488;-90
2021/09/26 03:52:52;;;;;;;20.13;8.85;;;;;;;11.10;98.83;90921.97;4996200;28;20033;-87
2021/09/26 03:55:17;;;;;;;28.85;9.30;;;;;;;11.13;98.31;90929.16;4980492;28;20036;-88
2021/09/26 03:57:43;;;;;;;16.70;7.70;;;;;;;11.15;97.82;90928.81;4980145;28;20018;-88
2021/09/26 04:00:11;;;;;;;30.13;8.02;;;;;;;11.13;97.68;90928.38;4996457;28;20058;-87
2021/09/26 04:02:36;;;;;;;29.73;8.63;;;;;;;11.09;98.01;90932.72;4996501;28;20032;-87
2021/09/26 04:05:02;;;;;;;22.35;10.70;;;;;;;11.22;97.54;90926.41;4979252;28;20403;-88
2021/09/26 04:07:28;;;;;;;15.93;8.63;;;;;;;11.18;97.37;90921.09;4996150;28;20058;-88
2021/09/26 04:09:53;;;;;;;11.88;8.35;;;;;;;11.11;97.20;90912.31;4964280;28;20508;-88
2021/09/26 04:12:18;;;;;;;12.90;7.97;;;;;;;11.06;96.65;90907.31;4996546;28;20484;-88
2021/09/26 04:14:44;;;;;;;12.48;6.68;;;;;;;11.04;95.28;90909.50;4995849;28;20026;-88
2021/09/26 04:17:09;;;;;;;10.30;6.50;;;;;;;10.95;94.91;90917.44;4979877;28;20471;-88
2021/09/26 04:19:35;;;;;;;10.93;6.68;;;;;;;11.06;94.26;90925.56;5013317;28;20057;-90
2021/09/26 04:22:00;;;;;;;11.75;6.75;;;;;;;11.07;94.04;90921.88;5035463;28;20456;-89
2021/09/26 04:24:26;;;;;;;15.68;6.88;;;;;;;11.01;93.73;90916.88;5035195;28;20021;-91
2021/09/26 04:26:51;;;;;;;14.98;7.15;;;;;;;11.01;95.34;90924.69;5035543;28;20079;-88
2021/09/26 04:29:17;;;;;;;30.90;8.50;;;;;;;11.27;95.68;90913.09;5035621;28;20021;-88
2021/09/26 04:31:42;;;;;;;11.05;7.82;;;;;;;11.12;96.26;90911.22;5018832;28;20029;-88
2021/09/26 04:34:08;;;;;;;50.70;8.85;;;;;;;11.06;96.02;90902.09;5018544;28;20033;-88
2021/09/26 04:36:33;;;;;;;21.60;9.02;;;;;;;11.12;97.11;90900.78;5018921;28;20494;-90
2021/09/26 04:38:58;;;;;;;18.65;9.02;;;;;;;10.98;97.64;90907.09;5051854;28;20029;-90
2021/09/26 04:41:24;;;;;;;14.20;7.68;;;;;;;10.90;97.17;90908.00;5035226;28;20079;-89
2021/09/26 04:43:49;;;;;;;11.82;7.45;;;;;;;11.05;96.11;90911.75;5018320;28;20025;-88
2021/09/26 04:46:15;;;;;;;22.92;8.75;;;;;;;10.87;95.23;90906.06;5035191;28;20029;-88
2021/09/26 04:48:40;;;;;;;15.15;8.60;;;;;;;10.87;95.85;90910.50;5034970;28;20039;-88
2021/09/26 04:51:06;;;;;;;12.07;7.93;;;;;;;10.93;97.34;90909.94;5019078;28;20028;-88
2021/09/26 04:53:31;;;;;;;15.05;9.48;;;;;;;11.09;98.37;90909.25;5036300;28;20453;-91
2021/09/26 04:55:57;;;;;;;12.77;8.80;;;;;;;11.03;98.53;90916.56;5023472;28;20025;-89
2021/09/26 04:58:22;;;;;;;12.35;8.80;;;;;;;10.97;97.63;90923.84;5056696;28;20017;-93
2021/09/26 05:00:48;;;;;;;14.25;8.88;;;;;;;10.98;97.69;90922.75;5060712;28;20039;-93
2021/09/26 05:03:13;;;;;;;14.07;9.07;;;;;;;11.18;98.34;90922.94;5034058;28;20086;-88
2021/09/26 05:05:39;;;;;;;13.35;9.30;;;;;;;11.21;98.45;90924.88;5017895;28;20031;-88
2021/09/26 05:08:05;;;;;;;15.63;8.68;;;;;;;11.24;98.28;90916.41;5034883;28;20025;-88
2021/09/26 05:10:31;;;;;;;12.68;8.63;;;;;;;11.19;98.20;90914.00;5017866;28;20032;-89
2021/09/26 05:12:57;;;;;;;11.18;7.78;;;;;;;11.17;97.52;90918.81;5034466;28;20355;-89
2021/09/26 05:15:22;;;;;;;10.50;7.32;;;;;;;11.16;96.38;90919.88;5034269;28;20017;-89
2021/09/26 05:17:48;;;;;;;12.63;7.43;;;;;;;11.25;94.94;90923.13;5034192;28;20020;-88
2021/09/26 05:20:13;;;;;;;9.68;7.47;;;;;;;11.08;94.67;90923.41;5017412;28;20038;-88
2021/09/26 05:22:38;;;;;;;8.52;7.20;;;;;;;11.03;94.29;90913.97;4992117;28;20502;-88
2021/09/26 05:25:04;;;;;;;16.42;7.20;;;;;;;11.00;94.28;90910.16;4998062;28;20021;-90
2021/09/26 05:27:30;;;;;;;11.20;7.53;;;;;;;11.09;93.69;90901.44;4998292;28;20030;-88
2021/09/26 05:29:55;;;;;;;12.20;7.97;;;;;;;11.07;94.88;90896.56;4998240;28;20119;-88
2021/09/26 05:32:21;;;;;;;10.88;7.75;;;;;;;11.18;94.48;90889.03;5014546;28;20032;-89
2021/09/26 05:34:46;;;;;;;13.10;7.85;;;;;;;11.12;94.56;90887.72;4997785;28;20021;-89
2021/09/26 05:37:12;;;;;;;13.15;8.15;;;;;;;11.18;95.22;90899.47;4997711;28;20453;-88
2021/09/26 05:39:38;;;;;;;11.88;8.23;;;;;;;11.14;96.03;90909.03;4997965;28;20034;-87
2021/09/26 05:42:06;;;;;;;14.13;8.50;;;;;;;11.17;96.37;90918.81;4998116;28;20018;-89
2021/09/26 05:44:31;;;;;;;12.20;8.90;;;;;;;11.24;97.37;90919.00;4997972;28;20402;-88
2021/09/26 05:46:57;;;;;;;10.02;7.28;;;;;;;11.31;96.81;90926.25;4997785;28;20029;-88
2021/09/26 05:49:22;;;;;;;11.35;8.18;;;;;;;11.43;97.29;90937.41;4997822;28;20052;-88
2021/09/26 05:51:48;;;;;;;10.32;7.53;;;;;;;11.42;96.90;90943.72;4998648;28;20055;-88
2021/09/26 05:54:13;;;;;;;9.60;6.88;;;;;;;11.39;96.03;90930.59;4998680;28;20400;-89
2021/09/26 05:56:39;;;;;;;8.68;6.95;;;;;;;11.46;94.72;90915.88;4998079;28;20044;-88
2021/09/26 05:59:04;;;;;;;11.05;7.28;;;;;;;11.58;93.18;90925.50;5014137;28;20084;-88
2021/09/26 06:01:30;;;;;;;7.35;6.25;;;;;;;11.51;94.13;90942.81;4998146;28;20033;-89
2021/09/26 06:03:55;;;;;;;9.48;7.15;;;;;;;11.60;95.00;90935.63;4998437;28;20026;-89
2021/09/26 06:06:20;;;;;;;10.73;7.28;;;;;;;11.61;95.11;90931.91;4981616;28;20030;-90
2021/09/26 06:08:46;;;;;;;11.43;7.32;;;;;;;11.60;95.95;90938.22;4997670;28;20026;-88
2021/09/26 06:11:11;;;;;;;14.55;8.88;;;;;;;11.67;96.19;90935.81;4997976;28;20060;-88
2021/09/26 06:13:37;;;;;;;16.27;8.68;;;;;;;11.83;96.24;90947.03;4997393;28;20034;-87
2021/09/26 06:16:03;;;;;;;14.05;8.90;;;;;;;11.84;96.67;90956.44;4999157;28;20375;-88
2021/09/26 06:18:29;;;;;;;15.55;9.80;;;;;;;11.83;97.10;90967.91;4998067;28;20433;-89
2021/09/26 06:20:54;;;;;;;15.43;9.90;;;;;;;11.92;97.15;90976.41;4998179;28;20552;-87
2021/09/26 06:23:20;;;;;;;13.50;9.18;;;;;;;12.06;96.76;90978.63;4981724;28;20116;-89
2021/09/26 06:25:45;;;;;;;12.60;8.32;;;;;;;12.25;95.57;91019.75;4997107;28;20054;-89
2021/09/26 06:28:11;;;;;;;14.88;8.85;;;;;;;12.13;95.13;91043.34;4984340;28;20033;-89
2021/09/26 06:30:39;;;;;;;28.92;14.98;;;;;;;12.44;96.85;91051.25;5018063;28;20478;-94
2021/09/26 06:33:05;;;;;;;27.60;15.40;;;;;;;12.59;96.28;91033.31;4985984;28;20036;-91
2021/09/26 06:35:30;;;;;;;28.40;14.13;;;;;;;12.61;94.25;91008.31;4985113;28;20491;-91
2021/09/26 06:37:56;;;;;;;21.77;13.10;;;;;;;12.77;92.75;91026.63;5001714;28;20021;-91
2021/09/26 06:40:21;;;;;;;21.55;13.45;;;;;;;12.77;93.78;91031.88;5001475;28;20051;-91
2021/09/26 06:42:47;;;;;;;27.52;13.88;;;;;;;12.88;93.85;91043.34;5001121;28;20056;-90
2021/09/26 06:45:13;;;;;;;24.98;13.73;;;;;;;12.87;94.23;91031.38;5000959;28;20025;-90
2021/09/26 06:47:38;;;;;;;31.50;13.90;;;;;;;12.84;94.15;91039.88;5001257;28;20021;-90
2021/09/26 06:50:05;;;;;;;26.48;14.05;;;;;;;12.78;95.01;91038.59;4985182;28;20110;-91
2021/09/26 06:52:30;;;;;;;25.27;14.10;;;;;;;12.73;95.75;91035.50;5000967;28;20021;-91
2021/09/26 06:54:56;;;;;;;27.80;15.02;;;;;;;12.63;96.44;91039.38;5000869;28;20410;-88
2021/09/26 06:57:21;;;;;;;26.50;14.73;;;;;;;12.61;96.98;91073.69;4984739;28;20055;-88
2021/09/26 06:59:47;;;;;;;24.20;15.15;;;;;;;12.59;98.00;91072.50;5001061;28;20026;-91
2021/09/26 07:02:13;;;;;;;24.17;14.52;;;;;;;12.71;97.16;91064.59;5000877;28;20021;-91
2021/09/26 07:04:38;;;;;;;25.77;14.30;;;;;;;12.68;97.01;91060.03;5000376;28;20036;-91
2021/09/26 07:07:04;;;;;;;25.75;13.48;;;;;;;12.72;96.53;91066.13;4984616;28;20018;-88
2021/09/26 07:09:29;;;;;;;25.77;13.90;;;;;;;12.71;95.68;91069.81;4984970;28;20029;-88
2021/09/26 07:11:55;;;;;;;22.17;12.98;;;;;;;12.70;95.89;91073.53;5000730;28;20036;-88
2021/09/26 07:14:20;;;;;;;23.05;13.95;;;;;;;12.62;96.46;91066.63;5000782;28;20488;-88
2021/09/26 07:16:46;;;;;;;22.95;13.85;;;;;;;12.70;96.18;91081.38;5000506;28;20392;-90
2021/09/26 07:19:12;;;;;;;24.00;13.80;;;;;;;12.63;96.35;91074.13;4978845;28;20419;-88
2021/09/26 07:21:38;;;;;;;27.45;13.50;;;;;;;12.64;96.27;91067.03;4965229;28;20030;-86
2021/09/26 07:24:04;;;;;;;24.50;13.60;;;;;;;12.70;96.44;91073.53;4964821;28;20304;-88
2021/09/26 07:26:29;;;;;;;25.67;14.35;;;;;;;12.67;96.23;91071.59;4997108;28;20017;-88
2021/09/26 07:28:55;;;;;;;20.83;13.57;;;;;;;12.64;96.44;91069.63;4964938;28;20546;-88
2021/09/26 07:31:20;;;;;;;22.77;13.63;;;;;;;12.56;96.67;91070.56;4964977;28;20021;-89
2021/09/26 07:33:45;;;;;;;24.27;13.70;;;;;;;12.59;96.62;91077.75;4996481;28;20034;-88
2021/09/26 07:36:11;;;;;;;22.35;13.88;;;;;;;12.63;96.38;91078.59;4980846;28;20430;-88
2021/09/26 07:38:36;;;;;;;19.63;12.52;;;;;;;12.83;95.77;91082.81;4979150;28;20472;-88
2021/09/26 07:41:02;;;;;;;21.38;12.50;;;;;;;12.71;96.04;91069.81;4980745;28;20034;-88
2021/09/26 07:43:27;;;;;;;26.65;12.50;;;;;;;12.67;96.24;91074.19;4996967;28;20033;-89
2021/09/26 07:45:53;;;;;;;18.83;11.98;;;;;;;12.70;96.20;91070.91;4963971;28;20168;-86
2021/09/26 07:48:19;;;;;;;18.25;12.18;;;;;;;12.74;96.21;91074.38;4964192;28;20479;-90
2021/09/26 07:50:45;;;;;;;19.13;11.13;;;;;;;12.84;95.92;91060.81;4964205;28;20022;-88
2021/09/26 07:53:10;;;;;;;15.10;9.45;;;;;;;12.93;95.27;91063.22;4980369;28;20024;-88
2021/09/26 07:55:35;;;;;;;13.38;9.38;;;;;;;12.95;94.94;91058.44;4964630;28;20025;-88
2021/09/26 07:58:01;;;;;;;17.38;10.57;;;;;;;12.94;95.66;91058.78;4964432;28;20443;-88
2021/09/26 08:00:26;;;;;;;18.92;10.63;;;;;;;13.08;95.46;91061.72;4964242;28;20034;-88
2021/09/26 08:02:52;;;;;;;13.85;8.98;;;;;;;13.19;94.58;91062.72;4996316;28;20431;-88
2021/09/26 08:05:17;;;;;;;10.43;7.60;;;;;;;13.29;93.57;91070.09;4979769;28;20048;-88
2021/09/26 08:07:43;;;;;;;16.95;8.75;;;;;;;13.43;94.16;91071.47;4980081;28;20025;-89
2021/09/26 08:10:09;;;;;;;13.18;8.20;;;;;;;13.42;94.11;91077.81;4964235;28;20021;-87
2021/09/26 08:12:34;;;;;;;10.63;7.30;;;;;;;13.51;93.61;91086.25;4996584;28;20030;-88
2021/09/26 08:15:00;;;;;;;10.10;6.55;;;;;;;13.50;92.57;91087.34;4981121;28;20120;-88
2021/09/26 08:17:25;;;;;;;11.35;6.82;;;;;;;13.71;92.69;91085.22;4966652;28;20117;-88
2021/09/26 08:19:50;;;;;;;11.93;6.90;;;;;;;13.73;92.98;91090.84;5003117;28;20029;-89
2021/09/26 08:22:16;;;;;;;10.85;6.65;;;;;;;13.82;92.96;91091.44;5035646;28;20490;-88
2021/09/26 08:24:42;;;;;;;7.80;5.82;;;;;;;13.97;92.12;91094.34;5035197;28;20194;-88
2021/09/26 08:27:07;;;;;;;12.23;6.93;;;;;;;14.05;91.65;91091.50;5035450;28;20441;-88
2021/09/26 08:29:33;;;;;;;11.25;6.82;;;;;;;14.13;90.78;91099.50;5035944;28;20028;-88
2021/09/26 08:31:58;;;;;;;8.57;6.03;;;;;;;14.20;89.30;91113.50;5037467;28;20525;-88
2021/09/26 08:34:24;;;;;;;8.35;6.07;;;;;;;14.22;91.15;91103.44;5023674;28;20069;-88
2021/09/26 08:36:50;;;;;;;9.60;5.93;;;;;;;14.24;88.30;91093.38;5044205;28;20020;-92
2021/09/26 08:39:16;;;;;;;11.50;6.25;;;;;;;14.25;90.50;91094.91;5061299;28;20032;-93
2021/09/26 08:41:42;;;;;;;10.63;5.70;;;;;;;14.38;89.15;91098.13;5061253;28;20021;-90
2021/09/26 08:44:07;;;;;;;9.70;5.75;;;;;;;14.51;88.49;91102.13;5026532;28;20096;-87
2021/09/26 08:46:33;;;;;;;10.82;6.00;;;;;;;14.52;88.08;91098.44;5018838;28;20033;-88
2021/09/26 08:48:58;;;;;;;7.05;5.20;;;;;;;14.55;86.43;91091.72;5019004;28;20017;-88
2021/09/26 08:51:24;;;;;;;9.35;5.50;;;;;;;14.48;88.74;91091.56;5034352;28;20025;-89
2021/09/26 08:53:50;;;;;;;8.48;4.93;;;;;;;14.44;84.76;91095.97;5034509;28;20368;-89
2021/09/26 08:56:18;;;;;;;8.32;5.53;;;;;;;14.50;87.23;91092.75;5034713;28;20107;-88
2021/09/26 08:58:44;;;;;;;9.52;5.47;;;;;;;14.60;85.90;91094.06;5034311;28;20091;-89
2021/09/26 09:01:09;;;;;;;14.00;6.13;;;;;;;14.51;84.18;91083.78;5018175;28;20024;-90
2021/09/26 09:03:35;;;;;;;9.27;6.05;;;;;;;14.64;83.30;91094.88;5084508;22;20033;-88
2021/09/26 09:06:00;;;;;;;8.40;5.78;;;;;;;14.60;83.95;91098.56;4979586;28;20091;-87
2021/09/26 09:08:26;;;;;;;9.60;5.88;;;;;;;14.57;82.04;91094.75;4997213;28;20033;-88
2021/09/26 09:10:53;;;;;;;11.15;5.93;;;;;;;14.71;81.56;91084.53;4995823;28;20030;-87
2021/09/26 09:13:38;;;;;;;9.02;5.75;;;;;;;14.77;82.21;91093.63;4993046;28;20030;-88
2021/09/26 09:16:05;;;;;;;9.07;5.50;;;;;;;14.84;81.10;91103.50;4978590;28;20032;-88
2021/09/26 09:18:53;;;;;;;11.02;5.85;;;;;;;14.90;78.47;91090.81;4977996;28;20032;-88
2021/09/26 09:21:19;;;;;;;11.35;6.05;;;;;;;14.93;80.62;91083.00;4963824;28;20026;-87
2021/09/26 09:23:45;;;;;;;9.25;5.80;;;;;;;14.86;79.02;91095.25;4979599;28;20069;-87
2021/09/26 09:26:10;;;;;;;9.90;6.22;;;;;;;14.93;80.16;91090.88;4964697;28;20026;-88
2021/09/26 09:28:39;;;;;;;9.60;6.25;;;;;;;14.99;79.19;91083.50;4959501;28;20542;-89
2021/09/26 09:31:06;;;;;;;8.48;5.50;;;;;;;15.12;77.34;91087.44;4960430;28;20033;-88
2021/09/26 09:33:42;;;;;;;10.10;6.20;;;;;;;15.25;79.03;91088.75;4959405;28;20026;-87
2021/09/26 09:36:22;;;;;;;8.63;6.40;;;;;;;15.34;79.36;91087.78;4959801;28;20060;-87
2021/09/26 09:38:49;;;;;;;11.27;5.95;;;;;;;15.23;76.95;91077.88;4959157;28;20040;-87
2021/09/26 09:41:31;;;;;;;8.13;6.05;;;;;;;15.27;76.93;91073.44;4959951;28;20109;-87
2021/09/26 09:43:57;;;;;;;9.82;6.15;;;;;;;15.27;75.03;91073.44;4959225;28;20080;-88
2021/09/26 09:46:30;;;;;;;8.85;5.88;;;;;;;15.41;74.99;91082.66;4959605;28;20384;-87
2021/09/26 09:49:11;;;;;;;10.07;6.32;;;;;;;15.39;79.43;91084.84;4959287;28;20019;-88
2021/09/26 09:51:38;;;;;;;9.27;6.10;;;;;;;15.45;78.14;91083.44;4975144;28;20061;-90
2021/09/26 09:54:04;;;;;;;8.73;5.75;;;;;;;15.42;75.05;91073.66;4959402;28;20587;-87
2021/09/26 09:56:29;;;;;;;10.50;6.05;;;;;;;15.37;76.28;91068.69;4959492;28;20031;-87
2021/09/26 09:58:56;;;;;;;9.57;5.75;;;;;;;15.38;75.77;91063.09;4959122;28;20474;-88
2021/09/26 10:01:30;;;;;;;9.32;6.05;;;;;;;15.45;74.86;91065.06;4962013;28;20041;-87
2021/09/26 10:04:00;;;;;;;11.63;6.05;;;;;;;15.61;74.67;91059.66;4963283;28;20041;-87
2021/09/26 10:06:32;;;;;;;9.35;5.60;;;;;;;15.62;76.25;91059.31;4959407;28;20105;-88
2021/09/26 10:09:14;;;;;;;8.10;5.88;;;;;;;15.86;75.45;91054.75;4975844;28;20400;-88
2021/09/26 10:11:43;;;;;;;8.13;5.80;;;;;;;15.94;74.27;91048.47;4975297;28;20603;-87
2021/09/26 10:14:09;;;;;;;7.88;5.93;;;;;;;16.03;73.87;91038.44;4958539;28;20459;-87
2021/09/26 10:16:34;;;;;;;8.82;5.72;;;;;;;16.12;72.77;91028.41;4959145;28;20022;-88
2021/09/26 10:18:59;;;;;;;9.23;6.15;;;;;;;16.19;72.44;91031.13;4955596;28;20030;-88
2021/09/26 10:21:25;;;;;;;9.30;6.00;;;;;;;15.98;72.09;91041.41;4940243;28;20039;-88
2021/09/26 10:23:52;;;;;;;9.68;6.85;;;;;;;15.85;74.54;91040.84;4955497;28;20037;-88
2021/09/26 10:26:20;;;;;;;8.45;6.00;;;;;;;15.93;74.17;91047.69;4940209;28;20026;-87
2021/09/26 10:28:46;;;;;;;8.05;6.40;;;;;;;16.11;72.81;91040.03;4944012;28;20082;-90
2021/09/26 10:31:11;;;;;;;8.63;5.95;;;;;;;16.22;72.83;91035.66;4959878;28;20094;-89
2021/09/26 10:33:37;;;;;;;7.75;6.18;;;;;;;16.56;73.95;91040.13;4954011;28;20030;-86
2021/09/26 10:36:02;;;;;;;9.20;5.88;;;;;;;16.75;72.54;91045.25;4939445;28;20485;-87
2021/09/26 10:38:28;;;;;;;9.07;5.93;;;;;;;16.81;69.82;91049.03;4955202;28;20023;-87
2021/09/26 10:40:53;;;;;;;8.20;6.05;;;;;;;16.94;72.53;91049.53;4939774;28;20026;-87
2021/09/26 10:43:22;;;;;;;9.93;6.00;;;;;;;16.74;70.78;91054.25;4955096;28;20038;-87
2021/09/26 10:45:48;;;;;;;9.23;5.47;;;;;;;16.80;70.37;91067.84;4955597;28;20027;-87
2021/09/26 10:48:13;;;;;;;9.15;6.10;;;;;;;16.83;69.46;91061.84;4939644;28;20058;-87
2021/09/26 10:50:39;;;;;;;8.73;5.85;;;;;;;16.73;70.82;91071.88;4939588;28;20033;-86
2021/09/26 10:53:12;;;;;;;7.60;5.50;;;;;;;16.60;69.63;91075.88;4976242;28;20015;-86
2021/09/26 10:55:42;;;;;;;9.85;6.10;;;;;;;16.71;69.28;91079.41;4959147;28;20544;-88
2021/09/26 10:58:09;;;;;;;7.43;5.32;;;;;;;16.75;69.66;91083.94;4939949;28;20555;-87
2021/09/26 11:00:38;;;;;;;6.95;5.53;;;;;;;16.69;69.31;91078.97;4971791;28;20404;-87
2021/09/26 11:03:13;;;;;;;9.57;5.80;;;;;;;16.81;69.82;91088.50;4972252;28;20038;-86
2021/09/26 11:05:50;;;;;;;10.23;5.75;;;;;;;16.70;70.29;91087.63;4939809;28;20458;-87
2021/09/26 11:08:36;;;;;;;8.48;5.28;;;;;;;16.37;69.50;91088.41;4955378;28;20093;-87
2021/09/26 11:11:01;;;;;;;8.68;6.00;;;;;;;16.17;69.82;91074.66;4972476;28;20058;-87
2021/09/26 11:13:29;;;;;;;7.72;6.15;;;;;;;16.20;71.15;91082.59;4940813;28;20057;-88
2021/09/26 11:16:13;;;;;;;10.85;6.68;;;;;;;15.86;71.32;91081.03;4974926;28;20019;-87
2021/09/26 11:18:58;;;;;;;9.55;6.43;;;;;;;15.82;71.03;91085.47;4975938;28;20030;-87
2021/09/26 11:21:59;;;;;;;8.32;5.57;;;;;;;15.80;70.08;91083.22;4977990;28;20030;-87
2021/09/26 11:24:28;;;;;;;7.13;5.70;;;;;;;15.61;71.07;91097.16;4961732;28;20030;-87
2021/09/26 11:26:56;;;;;;;16.48;9.05;;;;;;;15.45;73.13;91096.56;4961872;28;20030;-86